createdAt,value
2018-02-23T00:01:10.031Z,16.20
2018-02-23T00:03:37.655Z,17.15
2018-02-23T00:06:05.260Z,16.00
2018-02-23T00:08:32.849Z,15.23
2018-02-23T00:11:00.452Z,14.87
2018-02-23T00:13:28.074Z,15.70
2018-02-23T00:15:55.693Z,15.82
2018-02-23T00:18:23.270Z,16.90
2018-02-23T00:20:50.890Z,16.62
2018-02-23T00:23:18.475Z,16.75
2018-02-23T00:25:46.058Z,13.73
2018-02-23T00:28:14.414Z,18.98
2018-02-23T00:30:42.044Z,18.98
2018-02-23T00:33:09.651Z,15.88
2018-02-23T00:35:37.998Z,17.42
2018-02-23T00:38:05.574Z,19.85
2018-02-23T00:40:33.169Z,19.92
2018-02-23T00:43:00.776Z,21.77
2018-02-23T00:45:28.362Z,18.15
2018-02-23T00:47:56.740Z,17.25
2018-02-23T00:50:24.328Z,20.80
2018-02-23T00:52:51.940Z,20.90
2018-02-23T00:55:19.502Z,21.85
2018-02-23T00:57:47.071Z,21.12
2018-02-23T01:00:14.694Z,18.50
2018-02-23T01:02:42.295Z,17.48
2018-02-23T01:05:09.893Z,20.17
2018-02-23T01:07:37.492Z,19.50
2018-02-23T01:10:05.116Z,18.58
2018-02-23T01:12:32.674Z,20.73
2018-02-23T01:15:00.266Z,20.73
2018-02-23T01:17:27.877Z,20.02
2018-02-23T01:19:56.304Z,18.92
2018-02-23T01:22:23.873Z,18.77
2018-02-23T01:24:51.447Z,19.60
2018-02-23T01:27:19.075Z,17.67
2018-02-23T01:29:46.663Z,18.15
2018-02-23T01:32:14.282Z,17.00
2018-02-23T01:34:41.919Z,18.70
2018-02-23T01:37:10.254Z,19.95
2018-02-23T01:39:37.863Z,19.00
2018-02-23T01:42:05.482Z,19.08
2018-02-23T01:44:33.092Z,19.45
2018-02-23T01:47:00.688Z,18.48
2018-02-23T01:49:28.303Z,17.55
2018-02-23T01:51:55.914Z,17.95
2018-02-23T01:54:23.524Z,15.55
2018-02-23T01:56:51.139Z,17.33
2018-02-23T01:59:18.762Z,15.77
2018-02-23T02:01:46.358Z,20.10
2018-02-23T02:04:13.991Z,17.48
2018-02-23T02:06:41.596Z,18.62
2018-02-23T02:09:09.398Z,18.87
2018-02-23T02:11:36.986Z,19.77
2018-02-23T02:14:04.568Z,20.98
2018-02-23T02:16:32.191Z,18.60
2018-02-23T02:18:59.807Z,19.30
2018-02-23T02:21:27.419Z,20.40
2018-02-23T02:23:55.005Z,21.05
2018-02-23T02:26:22.577Z,19.25
2018-02-23T02:28:50.148Z,19.75
2018-02-23T02:31:18.523Z,19.80
2018-02-23T02:33:46.112Z,20.92
2018-02-23T02:36:13.727Z,19.02
2018-02-23T02:38:41.341Z,18.80
2018-02-23T02:41:08.931Z,18.73
2018-02-23T02:43:36.534Z,19.83
2018-02-23T02:46:04.901Z,18.10
2018-02-23T02:48:32.483Z,19.35
2018-02-23T02:51:00.828Z,18.10
2018-02-23T02:53:28.447Z,18.25
2018-02-23T02:55:56.026Z,18.92
2018-02-23T02:58:23.662Z,18.17
2018-02-23T03:00:51.265Z,18.80
2018-02-23T03:03:18.876Z,18.60
2018-02-23T03:05:46.470Z,17.02
2018-02-23T03:08:14.054Z,18.42
2018-02-23T03:10:41.717Z,17.40
2018-02-23T03:13:09.335Z,17.83
2018-02-23T03:15:36.923Z,17.77
2018-02-23T03:18:04.522Z,15.90
2018-02-23T03:20:32.894Z,17.92
2018-02-23T03:23:01.264Z,16.35
2018-02-23T03:25:28.895Z,17.10
2018-02-23T03:27:56.510Z,16.52
2018-02-23T03:30:24.121Z,17.23
2018-02-23T03:32:51.730Z,16.52
2018-02-23T03:35:19.323Z,17.27
2018-02-23T03:37:46.927Z,17.20
2018-02-23T03:40:14.548Z,18.15
2018-02-23T03:42:42.132Z,13.93
2018-02-23T03:45:09.708Z,17.73
2018-02-23T03:47:37.339Z,16.33
2018-02-23T03:50:04.906Z,16.77
2018-02-23T03:52:45.691Z,16.02
2018-02-23T03:55:13.307Z,16.17
2018-02-23T03:57:40.906Z,16.35
2018-02-23T04:00:08.555Z,16.83
2018-02-23T04:02:36.178Z,16.80
2018-02-23T04:05:03.752Z,17.30
2018-02-23T04:07:31.373Z,17.12
2018-02-23T04:09:59.732Z,16.73
2018-02-23T04:12:27.347Z,17.12
2018-02-23T04:14:54.967Z,15.15
2018-02-23T04:17:23.312Z,15.95
2018-02-23T04:19:50.911Z,16.33
2018-02-23T04:22:19.250Z,16.67
2018-02-23T04:24:46.892Z,17.80
2018-02-23T04:27:14.492Z,12.07
2018-02-23T04:29:42.109Z,16.00
2018-02-23T04:32:09.692Z,15.50
2018-02-23T04:34:37.283Z,16.60
2018-02-23T04:37:05.686Z,15.77
2018-02-23T04:39:33.255Z,16.85
2018-02-23T04:42:00.843Z,14.93
2018-02-23T04:44:28.492Z,15.20
2018-02-23T04:46:56.112Z,17.75
2018-02-23T04:49:24.445Z,16.48
2018-02-23T04:51:52.066Z,17.00
2018-02-23T04:54:19.663Z,17.80
2018-02-23T04:56:47.283Z,15.57
2018-02-23T04:59:14.918Z,17.08
2018-02-23T05:01:42.561Z,17.85
2018-02-23T05:04:10.172Z,15.65
2018-02-23T05:06:37.780Z,17.27
2018-02-23T05:09:05.396Z,18.45
2018-02-23T05:11:32.994Z,16.95
2018-02-23T05:14:00.598Z,18.25
2018-02-23T05:16:28.941Z,16.95
2018-02-23T05:18:56.560Z,15.32
2018-02-23T05:21:24.168Z,14.00
2018-02-23T05:23:51.798Z,13.93
2018-02-23T05:26:19.391Z,13.38
2018-02-23T05:34:51.419Z,13.30
2018-02-23T05:37:19.806Z,14.82
2018-02-23T05:39:47.436Z,13.45
2018-02-23T05:42:15.048Z,14.65
2018-02-23T05:44:42.617Z,13.73
2018-02-23T05:47:10.211Z,14.35
2018-02-23T05:49:37.863Z,14.75
2018-02-23T05:52:05.455Z,15.05
2018-02-23T05:54:33.815Z,15.38
2018-02-23T05:57:01.431Z,15.80
2018-02-23T05:59:29.031Z,13.82
2018-02-23T06:01:56.579Z,12.65
2018-02-23T06:04:24.182Z,14.77
2018-02-23T06:06:51.767Z,15.20
2018-02-23T06:09:19.382Z,13.90
2018-02-23T06:11:47.720Z,14.50
2018-02-23T06:14:15.347Z,15.57
2018-02-23T06:16:42.943Z,14.60
2018-02-23T06:19:10.520Z,13.45
2018-02-23T06:21:38.122Z,14.82
2018-02-23T06:24:06.514Z,13.93
2018-02-23T06:26:34.097Z,13.60
2018-02-23T06:29:01.701Z,13.95
2018-02-23T06:31:29.334Z,13.40
2018-02-23T06:33:56.922Z,14.05
2018-02-23T06:36:24.547Z,15.18
2018-02-23T06:38:52.126Z,12.80
2018-02-23T06:41:19.753Z,15.30
2018-02-23T06:43:47.368Z,14.13
2018-02-23T06:46:14.980Z,15.43
2018-02-23T06:48:42.552Z,15.50
2018-02-23T06:51:10.198Z,14.32
2018-02-23T06:53:37.762Z,14.98
2018-02-23T06:56:05.375Z,15.73
2018-02-23T06:58:33.698Z,15.23
2018-02-23T07:01:01.306Z,12.95
2018-02-23T07:03:28.902Z,12.65
2018-02-23T07:05:56.519Z,15.13
2018-02-23T07:08:24.070Z,15.68
2018-02-23T07:10:51.699Z,15.45
2018-02-23T07:13:19.302Z,14.90
2018-02-23T07:15:46.894Z,15.20
2018-02-23T07:18:14.506Z,14.82
2018-02-23T07:20:42.135Z,15.45
2018-02-23T07:23:09.705Z,14.52
2018-02-23T07:25:37.299Z,14.68
2018-02-23T07:28:04.927Z,14.70
2018-02-23T07:30:32.532Z,16.17
2018-02-23T07:33:00.920Z,15.80
2018-02-23T07:35:29.291Z,16.40
2018-02-23T07:37:57.656Z,15.18
2018-02-23T07:40:25.275Z,16.20
2018-02-23T07:42:52.908Z,15.23
2018-02-23T07:45:20.499Z,15.65
2018-02-23T07:47:48.092Z,14.98
2018-02-23T07:50:15.707Z,15.77
2018-02-23T07:52:44.078Z,16.40
2018-02-23T07:55:11.650Z,17.80
2018-02-23T07:57:39.236Z,16.08
2018-02-23T08:00:06.822Z,16.70
2018-02-23T08:02:34.399Z,16.05
2018-02-23T08:05:02.782Z,15.90
2018-02-23T08:07:30.409Z,17.60
2018-02-23T08:09:57.998Z,16.20
2018-02-23T08:12:26.392Z,18.23
2018-02-23T08:14:53.993Z,16.65
2018-02-23T08:17:21.563Z,19.30
2018-02-23T08:19:49.151Z,16.75
2018-02-23T08:22:17.486Z,15.95
2018-02-23T08:24:45.183Z,14.45
2018-02-23T08:27:13.564Z,18.10
2018-02-23T08:29:41.130Z,17.17
2018-02-23T08:32:09.485Z,19.05
2018-02-23T08:34:37.095Z,19.50
2018-02-23T08:37:04.697Z,19.05
2018-02-23T08:39:32.267Z,17.90
2018-02-23T08:41:59.862Z,17.95
2018-02-23T08:44:27.444Z,18.02
2018-02-23T08:46:55.065Z,17.58
2018-02-23T08:49:23.422Z,15.95
2018-02-23T08:51:51.040Z,18.45
2018-02-23T08:54:18.677Z,17.08
2018-02-23T08:56:46.246Z,18.35
2018-02-23T08:59:13.818Z,18.45
2018-02-23T09:01:41.379Z,18.15
2018-02-23T09:04:09.023Z,16.98
2018-02-23T09:06:36.603Z,17.65
2018-02-23T09:09:04.216Z,16.80
2018-02-23T09:11:31.827Z,17.35
2018-02-23T09:13:59.450Z,19.10
2018-02-23T09:16:27.868Z,19.65
2018-02-23T09:18:55.534Z,17.87
2018-02-23T09:21:23.123Z,18.33
2018-02-23T09:23:50.768Z,17.10
2018-02-23T09:26:18.363Z,17.40
2018-02-23T09:28:46.741Z,17.90
2018-02-23T09:31:15.123Z,19.58
2018-02-23T09:33:55.453Z,19.45
2018-02-23T09:36:23.032Z,17.05
2018-02-23T09:38:50.619Z,18.27
2018-02-23T09:41:18.203Z,19.50
2018-02-23T09:43:45.794Z,18.70
2018-02-23T09:46:13.391Z,20.37
2018-02-23T09:48:41.724Z,19.05
2018-02-23T09:51:09.314Z,20.55
2018-02-23T09:53:37.704Z,20.83
2018-02-23T09:56:06.091Z,19.70
2018-02-23T09:58:33.743Z,19.87
2018-02-23T10:01:02.135Z,20.17
2018-02-23T10:03:29.704Z,18.40
2018-02-23T10:05:57.283Z,20.25
2018-02-23T10:08:24.916Z,19.48
2018-02-23T10:10:52.510Z,17.45
2018-02-23T10:13:20.114Z,19.05
2018-02-23T10:15:48.509Z,20.10
2018-02-23T10:18:16.895Z,19.30
2018-02-23T10:20:44.505Z,20.70
2018-02-23T10:23:12.132Z,17.87
2018-02-23T10:25:39.768Z,18.75
2018-02-23T10:28:07.344Z,20.62
2018-02-23T10:30:34.975Z,19.17
2018-02-23T10:33:03.315Z,20.15
2018-02-23T10:35:30.924Z,18.02
2018-02-23T10:37:59.283Z,21.42
2018-02-23T10:40:26.881Z,18.80
2018-02-23T10:42:54.483Z,20.12
2018-02-23T10:45:22.078Z,20.62
2018-02-23T10:47:50.427Z,19.30
2018-02-23T10:50:18.012Z,19.70
2018-02-23T10:52:46.356Z,19.90
2018-02-23T10:55:13.996Z,20.30
2018-02-23T10:57:41.596Z,19.80
2018-02-23T11:00:09.232Z,19.05
2018-02-23T11:02:36.841Z,21.15
2018-02-23T11:05:06.187Z,20.50
2018-02-23T11:07:33.788Z,21.42
2018-02-23T11:10:02.131Z,21.10
2018-02-23T11:12:29.801Z,17.30
2018-02-23T11:14:57.408Z,23.17
2018-02-23T11:17:25.770Z,23.48
2018-02-23T11:19:54.123Z,19.90
2018-02-23T11:22:21.768Z,23.45
2018-02-23T11:24:49.361Z,22.95
2018-02-23T11:27:16.969Z,21.20
2018-02-23T11:29:44.620Z,18.65
2018-02-23T11:32:12.191Z,20.20
2018-02-23T11:34:39.771Z,22.20
2018-02-23T11:37:07.380Z,20.80
2018-02-23T11:39:35.774Z,22.10
2018-02-23T11:42:03.337Z,22.70
2018-02-23T11:44:30.997Z,21.35
2018-02-23T11:46:58.587Z,21.17
2018-02-23T11:49:26.182Z,20.40
2018-02-23T11:51:53.743Z,23.27
2018-02-23T11:54:21.348Z,21.33
2018-02-23T11:56:48.979Z,19.65
2018-02-23T11:59:17.342Z,20.98
2018-02-23T12:01:45.700Z,22.40
2018-02-23T12:04:13.327Z,22.60
2018-02-23T12:06:40.896Z,23.75
2018-02-23T12:09:08.507Z,24.02
2018-02-23T12:11:47.990Z,21.58
2018-02-23T12:14:15.560Z,22.62
2018-02-23T12:16:43.156Z,20.58
2018-02-23T12:19:10.784Z,21.98
2018-02-23T12:21:38.368Z,22.73
2018-02-23T12:24:05.985Z,22.20
2018-02-23T12:26:33.584Z,21.95
2018-02-23T12:29:01.151Z,20.15
2018-02-23T12:31:28.747Z,19.80
2018-02-23T12:33:56.367Z,22.02
2018-02-23T12:36:24.004Z,23.75
2018-02-23T12:38:51.575Z,23.23
2018-02-23T12:41:19.161Z,23.42
2018-02-23T12:43:46.811Z,22.50
2018-02-23T12:46:15.166Z,20.42
2018-02-23T12:48:42.816Z,21.40
2018-02-23T12:51:10.413Z,24.80
2018-02-23T12:53:38.023Z,22.17
2018-02-23T12:56:05.608Z,21.85
2018-02-23T12:58:33.247Z,20.85
2018-02-23T13:01:00.853Z,20.77
2018-02-23T13:03:28.439Z,19.75
2018-02-23T13:05:56.847Z,21.60
2018-02-23T13:08:24.421Z,19.90
2018-02-23T13:10:52.051Z,22.15
2018-02-23T13:13:19.643Z,23.38
2018-02-23T13:15:47.248Z,20.62
2018-02-23T13:18:15.611Z,21.17
2018-02-23T13:20:43.254Z,21.83
2018-02-23T13:23:10.831Z,22.23
2018-02-23T13:25:44.388Z,21.80
2018-02-23T13:28:17.503Z,20.83
2018-02-23T13:30:45.136Z,21.95
2018-02-23T13:33:12.739Z,21.52
2018-02-23T13:35:40.416Z,21.73
2018-02-23T13:38:08.836Z,22.23
2018-02-23T13:40:36.445Z,21.55
2018-02-23T13:43:04.038Z,19.40
2018-02-23T13:45:31.612Z,22.45
2018-02-23T13:47:59.233Z,21.50
2018-02-23T13:50:26.844Z,22.33
2018-02-23T13:52:54.465Z,21.25
2018-02-23T13:55:22.870Z,20.52
2018-02-23T13:57:50.490Z,22.00
2018-02-23T14:00:18.110Z,19.73
2018-02-23T14:02:45.763Z,20.33
2018-02-23T14:05:13.367Z,23.48
2018-02-23T14:07:42.800Z,22.60
2018-02-23T14:10:10.374Z,18.40
2018-02-23T14:12:37.963Z,21.98
2018-02-23T14:15:11.876Z,20.08
2018-02-23T14:17:39.486Z,19.37
2018-02-23T14:20:07.835Z,22.30
2018-02-23T14:22:35.440Z,17.02
2018-02-23T14:25:03.016Z,21.77
2018-02-23T14:27:30.617Z,19.45
2018-02-23T14:29:58.232Z,22.42
2018-02-23T14:32:25.861Z,21.50
2018-02-23T14:34:54.246Z,21.20
2018-02-23T14:37:22.580Z,22.13
2018-02-23T14:39:50.212Z,22.50
2018-02-23T14:42:25.390Z,23.85
2018-02-23T14:44:52.958Z,21.70
2018-02-23T14:47:20.600Z,20.20
2018-02-23T14:50:00.071Z,23.35
2018-02-23T14:52:30.430Z,21.40
2018-02-23T14:54:58.033Z,23.67
2018-02-23T14:57:25.629Z,21.85
2018-02-23T14:59:53.254Z,23.65
2018-02-23T15:02:20.843Z,23.20
2018-02-23T15:04:49.260Z,21.15
2018-02-23T15:07:16.859Z,21.67
2018-02-23T15:09:44.453Z,21.67
2018-02-23T15:12:12.072Z,22.37
2018-02-23T15:14:39.660Z,23.40
2018-02-23T15:17:08.047Z,21.52
2018-02-23T15:19:36.388Z,22.90
2018-02-23T15:22:03.995Z,19.62
2018-02-23T15:24:31.611Z,22.30
2018-02-23T15:26:59.223Z,21.00
2018-02-23T15:29:26.822Z,22.85
2018-02-23T15:32:06.203Z,22.30
2018-02-23T15:34:33.837Z,20.40
2018-02-23T15:37:01.447Z,22.55
2018-02-23T15:39:29.071Z,23.20
2018-02-23T15:41:57.467Z,23.60
2018-02-23T15:44:25.110Z,24.25
2018-02-23T15:46:52.781Z,20.45
2018-02-23T15:49:34.956Z,23.62
2018-02-23T15:52:03.134Z,24.42
2018-02-23T15:54:30.751Z,22.40
2018-02-23T15:56:58.447Z,24.50
2018-02-23T15:59:26.079Z,23.98
2018-02-23T16:01:53.687Z,24.67
2018-02-23T16:04:22.065Z,23.33
2018-02-23T16:06:49.682Z,24.08
2018-02-23T16:09:17.294Z,24.75
2018-02-23T16:11:45.669Z,22.67
2018-02-23T16:14:14.031Z,23.23
2018-02-23T16:16:41.680Z,23.23
2018-02-23T16:19:09.339Z,23.77
2018-02-23T16:21:36.972Z,23.62
2018-02-23T16:24:04.640Z,22.20
2018-02-23T16:26:32.265Z,22.37
2018-02-23T16:29:02.263Z,23.80
2018-02-23T16:31:30.831Z,24.33
2018-02-23T16:33:58.475Z,25.27
2018-02-23T16:36:29.770Z,20.42
2018-02-23T16:38:58.132Z,21.25
2018-02-23T16:41:25.772Z,21.85
2018-02-23T16:43:53.367Z,22.45
2018-02-23T16:46:21.021Z,23.73
2018-02-23T16:48:49.401Z,23.15
2018-02-23T16:51:17.750Z,22.02
2018-02-23T16:53:45.358Z,23.35
2018-02-23T16:56:12.972Z,24.98
2018-02-23T16:58:40.567Z,21.48
2018-02-23T17:01:08.950Z,22.00
2018-02-23T17:03:37.308Z,24.33
2018-02-23T17:06:04.943Z,24.27
2018-02-23T17:08:32.579Z,24.00
2018-02-23T17:11:00.175Z,22.85
2018-02-23T17:13:27.819Z,22.08
2018-02-23T17:15:55.410Z,23.00
2018-02-23T17:18:23.034Z,22.40
2018-02-23T17:20:50.619Z,30.05
2018-02-23T17:23:18.220Z,46.20
2018-02-23T17:25:45.826Z,41.67
2018-02-23T17:28:13.424Z,32.55
2018-02-23T17:30:41.807Z,29.83
2018-02-23T17:33:13.936Z,25.30
2018-02-23T17:35:41.590Z,25.37
2018-02-23T17:38:09.137Z,25.27
2018-02-23T17:40:36.789Z,26.85
2018-02-23T17:43:04.375Z,28.48
2018-02-23T17:45:32.072Z,27.35
2018-02-23T17:48:00.696Z,27.30
2018-02-23T17:50:34.115Z,27.70
2018-02-23T17:53:01.711Z,27.27
2018-02-23T17:55:30.115Z,26.00
2018-02-23T17:57:57.715Z,27.00
2018-02-23T18:00:25.306Z,27.95
2018-02-23T18:03:11.557Z,27.45
2018-02-23T18:05:39.172Z,27.20
2018-02-23T18:11:07.006Z,26.42
2018-02-23T18:22:30.281Z,27.77
2018-02-23T18:27:51.211Z,27.05
2018-02-23T18:30:18.848Z,29.55
2018-02-23T18:32:47.207Z,25.58
2018-02-23T18:35:14.844Z,26.25
2018-02-23T18:37:42.452Z,25.77
2018-02-23T18:40:10.812Z,25.12
2018-02-23T18:42:45.534Z,23.95
2018-02-23T18:45:13.124Z,26.37
2018-02-23T18:47:41.477Z,25.40
2018-02-23T18:50:09.056Z,23.20
2018-02-23T18:52:37.412Z,24.05
2018-02-23T18:55:05.029Z,25.80
2018-02-23T18:57:32.700Z,24.65
2018-02-23T19:00:00.305Z,25.83
2018-02-23T19:02:27.958Z,24.77
2018-02-23T19:04:55.540Z,25.65
2018-02-23T19:07:23.148Z,25.30
2018-02-23T19:09:50.732Z,23.80
2018-02-23T19:12:18.345Z,27.35
2018-02-23T19:14:45.947Z,26.08
2018-02-23T19:17:13.544Z,25.30
2018-02-23T19:19:43.846Z,24.95
2018-02-23T19:22:11.508Z,27.02
2018-02-23T19:24:39.109Z,22.73
2018-02-23T19:27:06.682Z,25.27
2018-02-23T19:29:34.323Z,23.02
2018-02-23T19:32:06.434Z,25.83
2018-02-23T19:34:45.665Z,32.90
2018-02-23T19:37:13.312Z,20.30
2018-02-23T19:39:40.915Z,25.70
2018-02-23T19:42:08.534Z,24.90
2018-02-23T19:44:36.999Z,24.73
2018-02-23T19:47:04.583Z,25.10
2018-02-23T19:49:32.228Z,24.58
2018-02-23T19:52:00.624Z,25.70
2018-02-23T19:54:28.252Z,26.10
2018-02-23T19:56:55.884Z,24.50
2018-02-23T19:59:23.488Z,25.35
2018-02-23T20:01:51.123Z,20.90
2018-02-23T20:04:19.795Z,25.40
2018-02-23T20:06:47.519Z,27.52
2018-02-23T20:09:15.443Z,23.75
2018-02-23T20:11:43.158Z,25.58
2018-02-23T20:14:10.967Z,26.42
2018-02-23T20:16:38.613Z,27.42
2018-02-23T20:19:07.020Z,29.77
2018-02-23T20:21:35.174Z,21.17
2018-02-23T20:24:02.861Z,26.55
2018-02-23T20:26:30.462Z,27.25
2018-02-23T20:28:58.071Z,26.95
2018-02-23T20:31:25.706Z,25.80
2018-02-23T20:33:54.081Z,22.55
2018-02-23T20:36:22.503Z,26.10
2018-02-23T20:38:50.095Z,26.00
2018-02-23T20:41:17.666Z,27.05
2018-02-23T20:43:45.301Z,26.67
2018-02-23T20:46:12.895Z,26.12
2018-02-23T20:48:40.530Z,27.05
2018-02-23T20:54:25.488Z,27.13
2018-02-23T20:56:53.067Z,28.60
2018-02-23T20:59:20.690Z,26.02
2018-02-23T21:01:48.329Z,26.70
2018-02-23T21:04:16.743Z,26.23
2018-02-23T21:06:44.324Z,25.75
2018-02-23T21:09:11.943Z,27.30
2018-02-23T21:11:40.287Z,30.20
2018-02-23T21:14:07.904Z,28.17
2018-02-23T21:16:35.511Z,28.70
2018-02-23T21:19:03.132Z,28.40
2018-02-23T21:21:30.755Z,28.52
2018-02-23T21:23:58.390Z,28.48
2018-02-23T21:26:26.002Z,28.42
2018-02-23T21:28:53.608Z,25.25
2018-02-23T21:31:31.596Z,27.25
2018-02-23T21:33:59.208Z,27.00
2018-02-23T21:36:27.580Z,25.37
2018-02-23T21:38:55.930Z,27.40
2018-02-23T21:41:23.582Z,26.45
2018-02-23T21:43:51.196Z,25.20
2018-02-23T21:46:19.611Z,26.05
2018-02-23T21:48:47.212Z,25.58
2018-02-23T21:51:14.802Z,25.05
2018-02-23T21:53:42.418Z,26.67
2018-02-23T21:56:10.061Z,25.02
2018-02-23T21:58:37.695Z,24.90
2018-02-23T22:01:05.297Z,26.23
2018-02-23T22:03:32.919Z,26.37
2018-02-23T22:06:00.559Z,27.13
2018-02-23T22:08:28.948Z,31.75
2018-02-23T22:10:56.550Z,35.03
2018-02-23T22:13:24.168Z,26.35
2018-02-23T22:15:51.777Z,27.50
2018-02-23T22:18:19.347Z,27.15
2018-02-23T22:20:46.975Z,26.00
2018-02-23T22:23:14.580Z,26.80
2018-02-23T22:25:42.219Z,29.25
2018-02-23T22:28:09.821Z,27.77
2018-02-23T22:30:37.447Z,22.80
2018-02-23T22:33:05.018Z,26.90
2018-02-23T22:35:32.666Z,24.20
2018-02-23T22:38:00.307Z,27.75
2018-02-23T22:40:27.970Z,23.52
2018-02-23T22:42:55.598Z,28.17
2018-02-23T22:45:23.172Z,26.23
2018-02-23T22:47:50.821Z,25.58
2018-02-23T22:50:18.435Z,21.20
2018-02-23T22:52:46.067Z,27.75
2018-02-23T22:55:13.702Z,26.30
2018-02-23T22:57:41.332Z,24.00
2018-02-23T23:00:08.936Z,21.10
2018-02-23T23:02:36.573Z,25.17
2018-02-23T23:05:04.957Z,24.52
2018-02-23T23:07:32.562Z,25.02
2018-02-23T23:10:00.208Z,27.60
2018-02-23T23:12:27.819Z,20.27
2018-02-23T23:14:56.241Z,21.50
2018-02-23T23:17:23.826Z,23.67
2018-02-23T23:19:51.427Z,21.83
2018-02-23T23:22:19.093Z,24.98
2018-02-23T23:24:47.483Z,21.50
2018-02-23T23:27:15.097Z,23.15
2018-02-23T23:29:42.728Z,23.75
2018-02-23T23:32:10.338Z,20.95
2018-02-23T23:34:38.694Z,22.33
2018-02-23T23:37:06.328Z,24.08
2018-02-23T23:39:33.940Z,23.50
2018-02-23T23:42:01.605Z,25.65
2018-02-23T23:44:29.992Z,22.13
2018-02-23T23:46:57.623Z,24.80
2018-02-23T23:49:25.176Z,24.45
2018-02-23T23:51:52.808Z,25.55
2018-02-23T23:54:20.459Z,22.17
2018-02-23T23:56:48.303Z,24.10
2018-02-23T23:59:16.665Z,24.73
